Time;durP1;ratioP1;P1;durP2;ratioP2;P2;SDS_P1;SDS_P2;PMS_P1;PMS_P2;Temp;Humidity;BMP_temperature;BMP_pressure;BME280_temperature;BME280_humidity;BME280_pressure;Samples;Min_cycle;Max_cycle;Signal;HPM_P1;HPM_P2
2024/02/16 06:43:30;;;;;;;5.35;2.28;;;;;;;;;;10661874;27;20407;-86
2024/02/16 06:55:08;;;;;;;3.53;2.15;;;;;;;;;;10712198;27;20034;-87
2024/02/16 07:00:55;;;;;;;5.07;2.50;;;;;;;;;;10706877;27;20027;-87
2024/02/16 07:06:49;;;;;;;4.40;2.10;;;;;;;;;;10696980;27;20031;-86
2024/02/16 07:11:53;;;;;;;6.00;2.80;;;;;;;;;;10715070;27;20035;-85
2024/02/16 07:16:54;;;;;;;7.90;2.60;;;;;;;;;;10697717;27;20079;-86
2024/02/16 07:22:12;;;;;;;4.18;2.47;;;;;;;;;;10718155;27;20038;-86
2024/02/16 07:27:13;;;;;;;4.70;2.30;;;;;;;;;;10698964;27;20023;-86
2024/02/16 07:32:14;;;;;;;3.47;2.03;;;;;;;;;;10715290;27;20007;-86
2024/02/16 07:37:43;;;;;;;4.20;2.10;;;;;;;;;;10700626;27;20051;-86
2024/02/16 07:42:45;;;;;;;4.10;2.30;;;;;;;;;;10701273;27;20035;-86
2024/02/16 07:47:47;;;;;;;2.25;1.50;;;;;;;;;;10728132;27;20027;-87
2024/02/16 07:52:48;;;;;;;3.25;1.70;;;;;;;;;;10677354;27;20034;-87
2024/02/16 07:57:49;;;;;;;16.67;11.55;;;;;;;;;;10691715;27;20046;-87
2024/02/16 08:02:50;;;;;;;3.25;1.70;;;;;;;;;;10664006;27;20073;-86
2024/02/16 08:07:51;;;;;;;3.63;1.70;;;;;;;;;;10667100;27;20038;-84
2024/02/16 08:12:52;;;;;;;4.60;1.83;;;;;;;;;;10678638;27;20033;-84
2024/02/16 08:17:53;;;;;;;2.50;1.80;;;;;;;;;;10671884;27;20091;-83
2024/02/16 08:22:55;;;;;;;4.88;2.53;;;;;;;;;;10672701;27;20048;-85
2024/02/16 08:27:56;;;;;;;5.38;3.15;;;;;;;;;;10672510;27;20029;-85
2024/02/16 08:32:58;;;;;;;6.15;2.50;;;;;;;;;;10676465;27;20080;-85
2024/02/16 08:38:19;;;;;;;3.75;2.42;;;;;;;;;;10646697;22;20035;-87
2024/02/16 08:43:51;;;;;;;3.40;1.90;;;;;;;;;;10573175;28;20032;-87
2024/02/16 08:49:16;;;;;;;4.80;2.75;;;;;;;;;;10573302;28;20132;-87
2024/02/16 09:11:57;;;;;;;4.32;2.30;;;;;;;;;;10621468;27;20039;-87
2024/02/16 09:28:50;;;;;;;3.53;2.30;;;;;;;;;;10592313;28;20028;-88
2024/02/16 09:51:13;;;;;;;4.30;2.35;;;;;;;;;;10602164;28;20034;-85
2024/02/16 10:02:26;;;;;;;4.53;2.25;;;;;;;;;;10598727;28;20016;-83
2024/02/16 10:36:11;;;;;;;6.43;3.10;;;;;;;;;;10458899;28;20118;-87
2024/02/16 10:41:42;;;;;;;5.10;2.20;;;;;;;;;;10457751;28;20028;-86
2024/02/16 10:47:04;;;;;;;5.53;2.65;;;;;;;;;;10441427;28;20090;-88
2024/02/16 11:09:46;;;;;;;6.53;3.92;;;;;;;;;;10528687;28;20063;-88
2024/02/16 11:15:20;;;;;;;4.72;2.72;;;;;;;;;;10523216;28;20066;-88
2024/02/16 11:20:24;;;;;;;6.50;2.85;;;;;;;;;;10589188;28;20028;-89
2024/02/16 11:25:55;;;;;;;6.43;2.97;;;;;;;;;;10584407;27;20020;-88
2024/02/16 11:31:25;;;;;;;6.25;3.20;;;;;;;;;;10578572;28;20039;-87
2024/02/16 11:36:44;;;;;;;6.10;3.10;;;;;;;;;;10597918;28;20024;-88
2024/02/16 11:42:21;;;;;;;6.20;3.08;;;;;;;;;;10596666;28;20104;-88
2024/02/16 11:47:25;;;;;;;5.88;3.42;;;;;;;;;;10594270;28;20028;-85
2024/02/16 11:52:37;;;;;;;5.57;2.83;;;;;;;;;;10577628;28;20070;-87
2024/02/16 12:03:51;;;;;;;8.88;3.63;;;;;;;;;;10597356;28;20024;-87
2024/02/16 12:09:16;;;;;;;5.85;3.00;;;;;;;;;;10550271;28;20060;-86
2024/02/16 12:19:57;;;;;;;9.10;4.25;;;;;;;;;;10603309;28;20019;-85
2024/02/16 12:31:12;;;;;;;6.57;2.72;;;;;;;;;;10524258;28;20036;-84
2024/02/16 12:36:18;;;;;;;10.25;3.40;;;;;;;;;;10503460;28;20171;-88
2024/02/16 12:41:19;;;;;;;7.85;4.40;;;;;;;;;;10498061;28;20059;-86
2024/02/16 12:46:21;;;;;;;6.60;3.42;;;;;;;;;;10605461;27;20028;-87
2024/02/16 12:51:22;;;;;;;7.68;4.28;;;;;;;;;;10603947;27;20081;-86
2024/02/16 12:56:23;;;;;;;5.50;3.17;;;;;;;;;;10579372;28;20035;-84
2024/02/16 13:01:24;;;;;;;11.57;4.40;;;;;;;;;;10576838;28;20027;-86
2024/02/16 13:06:26;;;;;;;6.47;3.58;;;;;;;;;;10579531;28;20114;-85
2024/02/16 13:11:28;;;;;;;10.68;4.65;;;;;;;;;;10578550;28;20027;-86
2024/02/16 13:16:30;;;;;;;6.65;3.95;;;;;;;;;;10574542;28;20020;-86
2024/02/16 13:21:31;;;;;;;7.32;5.20;;;;;;;;;;10576060;28;20024;-86
2024/02/16 13:26:32;;;;;;;7.63;3.85;;;;;;;;;;10574858;28;20024;-86
2024/02/16 13:31:33;;;;;;;7.25;3.88;;;;;;;;;;10580607;28;20456;-86
2024/02/16 13:36:34;;;;;;;7.20;4.15;;;;;;;;;;10580789;28;20024;-85
2024/02/16 13:41:35;;;;;;;7.85;5.13;;;;;;;;;;10612635;28;20554;-84
2024/02/16 13:46:36;;;;;;;8.40;4.85;;;;;;;;;;10587551;28;20027;-84
2024/02/16 13:51:37;;;;;;;7.70;5.70;;;;;;;;;;10584840;28;20087;-83
2024/02/16 13:56:39;;;;;;;6.72;4.47;;;;;;;;;;10578856;28;20058;-82
2024/02/16 14:01:40;;;;;;;8.48;4.85;;;;;;;;;;10575797;28;20372;-83
2024/02/16 14:06:41;;;;;;;9.27;6.78;;;;;;;;;;10576266;28;20153;-83
2024/02/16 14:11:45;;;;;;;6.65;5.07;;;;;;;;;;10582343;28;20028;-83
2024/02/16 14:16:46;;;;;;;10.13;7.20;;;;;;;;;;10579910;28;20031;-84
2024/02/16 14:21:47;;;;;;;6.30;4.72;;;;;;;;;;10575886;28;20431;-83
2024/02/16 14:26:48;;;;;;;6.05;4.70;;;;;;;;;;10574136;28;20059;-82
2024/02/16 14:31:49;;;;;;;6.30;4.53;;;;;;;;;;10573104;28;20511;-83
2024/02/16 14:36:50;;;;;;;5.47;4.47;;;;;;;;;;10574661;28;20018;-84
2024/02/16 14:41:51;;;;;;;5.63;4.93;;;;;;;;;;10577238;28;20028;-84
2024/02/16 14:46:54;;;;;;;7.72;5.78;;;;;;;;;;10573617;28;20024;-83
2024/02/16 14:51:55;;;;;;;7.97;6.22;;;;;;;;;;10574185;28;20036;-83
2024/02/16 14:56:56;;;;;;;9.65;7.15;;;;;;;;;;10571807;28;20028;-83
2024/02/16 15:01:58;;;;;;;6.68;5.20;;;;;;;;;;10586801;27;20095;-85
2024/02/16 15:06:59;;;;;;;5.63;4.78;;;;;;;;;;10605417;28;20043;-86
2024/02/16 15:12:00;;;;;;;4.50;3.97;;;;;;;;;;10582552;28;20032;-87
2024/02/16 15:17:02;;;;;;;4.47;3.88;;;;;;;;;;10630716;28;20024;-84
2024/02/16 15:22:03;;;;;;;5.65;4.95;;;;;;;;;;10596585;28;20487;-84
2024/02/16 15:27:06;;;;;;;4.40;3.67;;;;;;;;;;10591836;28;20034;-83
2024/02/16 15:32:08;;;;;;;6.03;3.80;;;;;;;;;;10614077;28;20475;-83
2024/02/16 15:37:09;;;;;;;4.78;3.95;;;;;;;;;;10596430;28;20092;-83
2024/02/16 15:42:12;;;;;;;7.50;6.30;;;;;;;;;;10612117;28;20032;-84
2024/02/16 15:47:13;;;;;;;5.80;5.20;;;;;;;;;;10592925;28;20090;-84
2024/02/16 15:52:14;;;;;;;5.22;4.47;;;;;;;;;;10611005;28;20043;-86
2024/02/16 15:57:15;;;;;;;5.30;3.45;;;;;;;;;;10595091;28;20027;-84
2024/02/16 16:02:16;;;;;;;5.68;5.18;;;;;;;;;;10595926;28;20027;-84
2024/02/16 16:07:18;;;;;;;7.72;6.97;;;;;;;;;;10595213;28;20057;-83
2024/02/16 16:12:19;;;;;;;3.60;3.15;;;;;;;;;;10592899;28;20032;-84
2024/02/16 16:17:20;;;;;;;5.72;4.35;;;;;;;;;;10601892;28;20126;-84
2024/02/16 16:22:21;;;;;;;3.42;3.00;;;;;;;;;;10612987;28;20077;-84
2024/02/16 16:27:22;;;;;;;4.53;3.78;;;;;;;;;;10617361;28;20027;-83
2024/02/16 16:32:23;;;;;;;4.05;2.88;;;;;;;;;;10612388;27;20043;-83
2024/02/16 16:37:24;;;;;;;3.53;2.60;;;;;;;;;;10609710;28;20023;-83
2024/02/16 16:42:50;;;;;;;4.22;2.80;;;;;;;;;;10606172;28;20046;-83
2024/02/16 16:47:51;;;;;;;3.17;2.65;;;;;;;;;;10574328;28;20023;-87
2024/02/16 16:52:52;;;;;;;2.97;2.67;;;;;;;;;;10591588;28;20042;-84
2024/02/16 16:57:54;;;;;;;3.05;2.60;;;;;;;;;;10572994;28;20590;-83
2024/02/16 17:02:55;;;;;;;3.38;3.08;;;;;;;;;;10576949;28;20497;-84
2024/02/16 17:07:56;;;;;;;3.05;2.50;;;;;;;;;;10583506;28;20108;-85
2024/02/16 17:13:03;;;;;;;3.47;2.90;;;;;;;;;;10580296;28;20051;-85
2024/02/16 17:18:05;;;;;;;2.92;1.95;;;;;;;;;;10576865;28;20157;-81
2024/02/16 17:23:06;;;;;;;3.45;2.05;;;;;;;;;;10572424;28;20119;-85
2024/02/16 17:28:07;;;;;;;3.47;2.50;;;;;;;;;;10591218;28;20035;-86
2024/02/16 17:33:08;;;;;;;3.55;2.47;;;;;;;;;;10569664;28;20031;-86
2024/02/16 17:38:09;;;;;;;2.78;2.33;;;;;;;;;;10570855;28;20368;-84
2024/02/16 17:43:11;;;;;;;3.17;2.88;;;;;;;;;;10589327;28;20085;-85
2024/02/16 17:48:12;;;;;;;3.35;3.05;;;;;;;;;;10589104;28;20509;-85
2024/02/16 17:53:13;;;;;;;3.45;2.50;;;;;;;;;;10591067;28;20169;-85
2024/02/16 17:58:14;;;;;;;3.60;2.97;;;;;;;;;;10570228;28;20425;-86
2024/02/16 18:03:17;;;;;;;4.10;2.78;;;;;;;;;;10570901;28;20028;-86
2024/02/16 18:08:18;;;;;;;2.80;2.40;;;;;;;;;;10576788;28;20028;-86
2024/02/16 18:13:21;;;;;;;2.55;1.85;;;;;;;;;;10578417;28;20053;-86
2024/02/16 18:18:22;;;;;;;2.15;1.90;;;;;;;;;;10575123;28;20069;-86
2024/02/16 18:23:23;;;;;;;2.53;1.70;;;;;;;;;;10576673;28;20470;-86
2024/02/16 18:28:24;;;;;;;2.78;2.00;;;;;;;;;;10571556;28;20022;-86
2024/02/16 18:33:29;;;;;;;3.05;2.45;;;;;;;;;;10570501;28;20163;-86
2024/02/16 18:38:30;;;;;;;2.30;2.10;;;;;;;;;;10586296;28;20024;-86
2024/02/16 18:43:31;;;;;;;2.55;2.30;;;;;;;;;;10575021;28;20051;-86
2024/02/16 18:48:33;;;;;;;4.05;2.90;;;;;;;;;;10573072;28;20031;-86
2024/02/16 18:53:34;;;;;;;3.45;3.05;;;;;;;;;;10574689;28;20479;-86
2024/02/16 18:58:35;;;;;;;4.03;3.63;;;;;;;;;;10573244;28;20020;-86
2024/02/16 19:03:36;;;;;;;4.07;3.10;;;;;;;;;;10587481;28;20019;-86
2024/02/16 19:08:37;;;;;;;2.00;1.80;;;;;;;;;;10566861;28;20031;-86
2024/02/16 19:13:38;;;;;;;2.70;2.03;;;;;;;;;;10585831;28;20054;-86
2024/02/16 19:18:40;;;;;;;2.50;2.10;;;;;;;;;;10569134;28;20028;-86
2024/02/16 19:23:42;;;;;;;4.43;3.85;;;;;;;;;;10585658;28;20026;-86
2024/02/16 19:28:43;;;;;;;2.88;2.58;;;;;;;;;;10565476;28;20031;-87
2024/02/16 19:33:44;;;;;;;3.70;3.40;;;;;;;;;;10569627;28;20024;-86
2024/02/16 19:38:45;;;;;;;1.85;1.40;;;;;;;;;;10607186;27;20023;-86
2024/02/16 19:43:46;;;;;;;2.15;1.77;;;;;;;;;;10575174;28;20431;-86
2024/02/16 19:48:47;;;;;;;2.50;2.10;;;;;;;;;;10570462;28;20114;-86
2024/02/16 19:53:48;;;;;;;2.13;1.75;;;;;;;;;;10572922;28;20534;-86
2024/02/16 19:58:50;;;;;;;3.13;2.50;;;;;;;;;;10573283;28;20037;-87
2024/02/16 20:03:51;;;;;;;3.35;1.90;;;;;;;;;;10573862;28;20027;-87
